Douglas, North Dakota
Current Conditions -  °F | °C
As of 1:54 AM on Tuesday 27 Jan 2015 (Local Time) from KMOT Reporting Station
Clear Clear  
Wind Chill: 31°   Ceiling: Unl
Heat Index: 31°   Visibility: 10mi
Dew Point: 28°   Wind: 3mph
Humidity: 89%   Direction: 140°SE
Pressure: 29.89"   Gusts: NA
Location:  47.86°N, 101.5°W
Report Text: KMOT 270754Z AUTO 14003KT 10SM CLR M01/M02 A2989 RMK AO2 SLP138 T10061022
Loading
Personal Weather Stations






























Interactive Weather Map New forecast layout! Learn more

10-Day Weather Forecast

Advertisements
Track Severe Weather on mobile